Airfield :
LOGIN :

Register | Disclaimer

   EN    FR    IT 

 










Legend :    VFR   Marginal VFR   IFR   Intensive IFR   Very Intensive IFR
Visi :
Ceiling :
>= 8 km
>= 3000ft
5 to 8 km
1000 to 3000 ft
1500m to 5 km
500 to 1000 ft
800 to 1500m
200 to 500 ft
< 800m
< 200 ft
Symbols :   Thunderstorms  Fog  Heavy snow  Heavy precipitations  Wind > 20 kt
SIGMETs :     Misc.  Thunderstorms  Icing  Turbulence  Mountain Waves  Volcanic Ashes







- Airport Elevation : 392 ft
- IATA code : CDG
- Download approach charts


LFPG - Paris-Aeroport Charles De Gaulle

CURRENT METAR :
  • 160830Z 22007G17KT 180V330 0550 R27L/0700D R09R/0650N R26R/0550N R08L/0700N R26L/0550N R08R/0375N R27R/0700N R09L/0650N FG VV/// 04/04 Q1012 NOSIG

EXPIRED METARs :
  • 160800Z 21007KT 0750 R27L/0900U R09R/1000D R26R/0650N R08L/0800N R26L/0600N R08R/0450N R27R/1000D R09L/1000D FG VV/// 04/04 Q1012 NOSIG
  • 160730Z 21008KT 0600 R27L/1000U R09R/1400U R26R/0800D R08L/0800N R26L/0900N R08R/0600N R27R/0900U R09L/1200U FG VV/// 04/03 Q1012 NOSIG
  • 160700Z 20009KT 0350 R27L/0400N R09R/0900U R26R/0600N R08L/0600N R26L/0700N R08R/0450N R27R/0450N R09L/1400U FG VV/// 03/03 Q1011 NOSIG
  • 160630Z 19006KT 0250 R27L/0350N R09R/0450N R26R/0600U R08L/0550N R26L/0750N R08R/0400N R27R/0375N R09L/0550N FG VV/// 03/03 Q1011 NOSIG
  • 160600Z 18005KT 0200 R27L/0350N R09R/0450N R26R/0650N R08L/0550N R26L/0750N R08R/0400N R27R/0375N R09L/0600U FG VV/// 03/03 Q1011 NOSIG

TAF TAF LFPG
Valid from the 16 at 06:00 until the 17 at 12:00 UTC


160500Z 1606/1712 20006KT 0700 FG BKN001
TEMPO 1606/1612 0400 FG VV///
PROB40
TEMPO 1612/1617 2000 BR BKN004
BECMG 1620/1622 4000 -RA BKN006
BECMG 1623/1701 9999 NSW BKN030
TEMPO 1703/1706 27012KT
ATIS : +33 1 48 62 10 92
No reported NOTAMs for that airfield.



MET'MAP, your aeronautical weather chart ! - Copyright ORBIFLY December 2007 - Disclaimer

ORBIFLY MET'MAP TEAM :

Programming & Development : Alexandra Zaïnal
Concept & Development : Baudouin d'Aumeries
Co-Development & Prog : Marc-Olivier Méhu
Technical & hardware support : Manuel Goepfert

Contact : metmap@orbifly.com




SOURCES & CREDITS :

   NOAA